METAR AND TAF INFORMATION
METAR FOR WADL
ADDS - METARS form results

(1741 UTC 05 December 2020)
Data provider http://aviationweather.gov/metar/data/
 
METAR text: WADL 051730Z 27003KT 7000 BKN016 25/25 Q1007 NOSIG
Conditions at: WADL (BANDARA , ID) observed 1730 UTC 05 December 2020
Temperature: 25.0°C (77°F)
Dewpoint: 25.0°C (77°F) [RH = 100%]
Pressure (altimeter): 29.73 inches Hg (1007.0 mb)
Winds: from the W (270 degrees) at 3 MPH (3 knots; 1.5 m/s)
Visibility: 4 miles ( 7 km)
Ceiling: 1600 feet AGL
Clouds: broken clouds at 1600 feet AGL
Weather: no significant weather observed at this time

METAR text: WADL 051700Z 00000KT 7000 BKN016 25/25 Q1008 NOSIG
Conditions at: WADL (BANDARA , ID) observed 1700 UTC 05 December 2020
Temperature: 25.0°C (77°F)
Dewpoint: 25.0°C (77°F) [RH = 100%]
Pressure (altimeter): 29.76 inches Hg (1008.0 mb)
Winds: calm
Visibility: 4 miles ( 7 km)
Ceiling: 1600 feet AGL
Clouds: broken clouds at 1600 feet AGL
Weather: no significant weather observed at this time

Forecast for: WADL (BANDARA , ID)
Text: TAF WADL 051700Z 0518/0618 30002KT 7000 BKN016
Forecast period: 1800 UTC 05 December 2020 to 1800 UTC 06 December 2020
Forecast type: FROM: standard forecast or significant change
Winds: from the WNW (300 degrees) at 2 MPH (2 knots; 1.0 m/s)
Visibility: 4 miles (7 km)
Ceiling: 1600 feet AGL
Clouds: broken clouds at 1600 feet AGL
Weather: no significant weather forecast for this period
Text: TEMPO 0606/0608 3000 TSRA FEW015CB
Forecast period: 0600 to 0800 UTC 06 December 2020
Forecast type: TEMPORARY: The following changes expected for less than half the time period
Visibility: 1.86 miles (2.99 km)
Ceiling: at least 12,000 feet AGL
Clouds: few clouds at 1500 feet AGL
Weather: TSRA  (rain associated with thunderstorm(s))

 AIRPORT MAP

 RUNWAY INFORMATION
Runway 13 Runway length 9000 ft Runway width 0 ft
Runway elevation 0 ft Runway displaced threshold 0 ft Runway heading 0
Runway 31 Runway length 9000 ft Runway width 0 ft
Runway elevation 0 ft Runway displaced threshold 0 ft Runway heading 0

 AIRPORT FREQUENCIES

 AIRPORT NEAR NAVIGATION AIDS